Time;durP1;ratioP1;P1;durP2;ratioP2;P2;SDS_P1;SDS_P2;PMS_P1;PMS_P2;Temp;Humidity;BMP_temperature;BMP_pressure;BME280_temperature;BME280_humidity;BME280_pressure;Samples;Min_cycle;Max_cycle;Signal;HPM_P1;HPM_P2
2024/02/17 00:02:19;;;;;;;10.15;6.18;;;;;;;13.52;56.44;100483.53;4876870;28;97022;-76
2024/02/17 00:04:44;;;;;;;19.83;5.95;;;;;;;13.59;55.99;100479.72;4875910;28;102029;-75
2024/02/17 00:07:10;;;;;;;7.55;5.65;;;;;;;13.64;55.64;100479.50;4890213;28;98297;-80
2024/02/17 00:09:35;;;;;;;9.52;6.10;;;;;;;13.62;55.52;100485.78;4895855;28;98070;-75
2024/02/17 00:12:01;;;;;;;9.70;5.53;;;;;;;13.64;55.45;100492.69;4880176;28;97431;-75
2024/02/17 00:14:26;;;;;;;10.13;6.28;;;;;;;13.57;55.86;100485.97;4878653;28;97713;-75
2024/02/17 00:16:52;;;;;;;9.60;5.95;;;;;;;13.62;55.31;100485.78;4892103;28;97520;-75
2024/02/17 00:19:18;;;;;;;8.73;5.68;;;;;;;13.69;55.42;100488.06;4892208;28;96896;-76
2024/02/17 00:21:43;;;;;;;9.48;6.32;;;;;;;13.68;54.97;100489.00;4877616;28;96976;-76
2024/02/17 00:24:09;;;;;;;10.88;6.95;;;;;;;13.65;54.88;100493.56;4891795;28;97599;-76
2024/02/17 00:26:34;;;;;;;9.30;6.38;;;;;;;13.69;54.94;100488.06;4881323;28;101193;-75
2024/02/17 00:29:00;;;;;;;9.25;6.35;;;;;;;13.68;55.17;100482.88;4872177;28;97433;-77
2024/02/17 00:31:25;;;;;;;10.35;6.20;;;;;;;13.64;55.14;100495.31;4883329;28;96882;-77
2024/02/17 00:33:52;;;;;;;10.63;6.60;;;;;;;13.64;55.56;100497.97;4888421;28;97614;-76
2024/02/17 00:36:18;;;;;;;7.55;5.55;;;;;;;13.71;55.42;100494.13;4883927;28;97517;-77
2024/02/17 00:38:44;;;;;;;10.15;6.45;;;;;;;13.81;55.12;100498.06;4876249;28;97144;-76
2024/02/17 00:41:10;;;;;;;8.05;5.82;;;;;;;13.67;55.40;100489.94;4884996;28;97212;-76
2024/02/17 00:43:36;;;;;;;14.05;7.00;;;;;;;13.58;55.74;100503.50;4888209;28;101365;-78
2024/02/17 00:46:02;;;;;;;11.02;6.25;;;;;;;13.56;55.75;100497.47;4883976;28;98204;-76
2024/02/17 00:48:27;;;;;;;8.15;6.00;;;;;;;13.55;55.42;100503.63;4892208;28;96782;-76
2024/02/17 00:50:53;;;;;;;9.10;5.90;;;;;;;13.56;55.48;100503.59;4885071;28;96886;-76
2024/02/17 00:53:18;;;;;;;10.85;6.90;;;;;;;13.63;55.68;100511.22;4891598;28;98306;-76
2024/02/17 00:55:44;;;;;;;9.40;5.85;;;;;;;13.59;55.74;100508.72;4892586;28;98207;-75
2024/02/17 00:58:10;;;;;;;12.40;6.35;;;;;;;13.61;55.05;100507.78;4873293;28;97559;-78
2024/02/17 01:00:36;;;;;;;9.93;6.20;;;;;;;13.56;55.37;100514.13;4873161;28;96906;-77
2024/02/17 01:03:05;;;;;;;8.40;6.22;;;;;;;13.69;55.42;100516.22;4891930;28;97579;-76
2024/02/17 01:05:31;;;;;;;7.95;6.10;;;;;;;13.53;55.34;100519.53;4874681;28;97548;-76
2024/02/17 01:07:56;;;;;;;12.10;5.85;;;;;;;13.59;55.39;100514.00;4872909;28;96814;-75
2024/02/17 01:10:22;;;;;;;11.15;6.05;;;;;;;13.64;55.37;100515.56;4882042;28;97002;-75
2024/02/17 01:12:47;;;;;;;10.95;6.20;;;;;;;13.61;55.48;100513.06;4890523;28;97574;-77
2024/02/17 01:15:13;;;;;;;13.55;6.50;;;;;;;13.49;55.68;100520.59;4874611;28;101451;-76
2024/02/17 01:17:39;;;;;;;9.05;5.93;;;;;;;13.53;55.61;100524.81;4875053;28;98157;-75
2024/02/17 01:20:05;;;;;;;8.50;5.88;;;;;;;13.50;55.74;100522.31;4872518;28;97229;-75
2024/02/17 01:22:31;;;;;;;9.68;5.40;;;;;;;13.45;55.91;100526.06;4871651;28;97449;-76
2024/02/17 01:24:56;;;;;;;8.93;5.85;;;;;;;13.43;55.92;100526.13;4871682;28;97365;-75
2024/02/17 01:27:22;;;;;;;11.35;5.90;;;;;;;13.46;55.64;100540.97;4883207;28;96846;-76
2024/02/17 01:29:47;;;;;;;12.05;5.75;;;;;;;13.53;55.63;100526.59;4856264;28;96900;-75
2024/02/17 01:32:13;;;;;;;9.70;7.00;;;;;;;13.49;55.52;100527.63;4875837;28;98735;-75
2024/02/17 01:34:38;;;;;;;10.00;6.30;;;;;;;13.51;55.76;100529.28;4869336;28;97414;-75
2024/02/17 01:37:04;;;;;;;9.75;5.95;;;;;;;13.54;55.79;100533.59;4855159;28;97242;-76
2024/02/17 01:39:29;;;;;;;11.40;6.50;;;;;;;13.52;55.56;100533.63;4887855;28;97014;-75
2024/02/17 01:41:55;;;;;;;9.85;6.53;;;;;;;13.52;55.38;100524.88;4855727;28;101457;-75
2024/02/17 01:44:21;;;;;;;10.82;6.43;;;;;;;13.60;55.57;100533.31;4840151;28;101017;-75
2024/02/17 01:46:47;;;;;;;11.43;6.53;;;;;;;13.54;55.67;100531.78;4872637;28;97179;-77
2024/02/17 01:49:14;;;;;;;12.35;6.82;;;;;;;13.49;55.66;100528.50;4856814;28;96854;-75
2024/02/17 01:51:40;;;;;;;9.00;6.07;;;;;;;13.40;55.99;100534.16;4856579;28;101483;-75
2024/02/17 01:54:05;;;;;;;10.35;6.50;;;;;;;13.39;55.58;100535.09;4851917;29;101550;-75
2024/02/17 01:56:31;;;;;;;9.77;6.55;;;;;;;13.36;56.21;100541.34;4870387;28;97357;-77
2024/02/17 01:58:57;;;;;;;16.90;7.03;;;;;;;13.31;56.10;100532.78;4879708;28;97238;-75
2024/02/17 02:01:23;;;;;;;8.65;6.63;;;;;;;13.28;56.60;100535.53;4868406;28;97985;-75
2024/02/17 02:03:49;;;;;;;8.27;6.20;;;;;;;13.29;57.04;100529.38;4871580;28;97473;-76
2024/02/17 02:06:20;;;;;;;9.13;6.53;;;;;;;13.36;56.70;100543.13;4852985;28;96782;-75
2024/02/17 02:08:47;;;;;;;13.23;7.80;;;;;;;13.28;57.02;100545.22;4866272;28;97589;-75
2024/02/17 02:11:13;;;;;;;9.05;6.95;;;;;;;13.24;57.06;100551.53;4865097;28;101610;-75
2024/02/17 02:13:39;;;;;;;9.68;7.18;;;;;;;13.34;56.96;100548.47;4847519;28;97367;-76
2024/02/17 02:16:05;;;;;;;10.23;7.15;;;;;;;13.36;56.53;100558.97;4839672;28;97008;-75
2024/02/17 02:18:31;;;;;;;9.02;7.15;;;;;;;13.24;56.91;100555.03;4871620;28;97237;-78
2024/02/17 02:20:56;;;;;;;12.00;7.13;;;;;;;13.24;57.16;100562.06;4871705;28;97460;-76
2024/02/17 02:23:22;;;;;;;11.85;8.25;;;;;;;13.27;56.90;100562.84;4872160;28;97682;-77
2024/02/17 02:25:55;;;;;;;9.98;6.65;;;;;;;13.34;56.93;100561.63;4871120;28;96830;-76
2024/02/17 02:28:21;;;;;;;13.75;7.80;;;;;;;13.33;57.21;100557.31;4871862;28;96825;-76
2024/02/17 02:30:46;;;;;;;11.60;8.35;;;;;;;13.32;57.28;100563.50;4889150;28;97437;-77
2024/02/17 02:33:12;;;;;;;10.40;6.20;;;;;;;13.29;58.02;100566.28;4873667;28;97369;-77
2024/02/17 02:35:37;;;;;;;11.85;8.30;;;;;;;13.25;58.35;100563.78;4840586;28;98069;-77
2024/02/17 02:38:03;;;;;;;13.52;8.30;;;;;;;13.26;58.76;100571.63;4863167;28;96941;-76
2024/02/17 02:40:29;;;;;;;11.63;7.55;;;;;;;13.22;59.10;100577.09;4870948;28;97704;-76
2024/02/17 02:42:55;;;;;;;12.07;7.30;;;;;;;13.22;60.19;100574.44;4872239;28;101303;-76
2024/02/17 02:45:20;;;;;;;13.60;7.63;;;;;;;13.13;61.16;100576.53;4871199;28;97341;-76
2024/02/17 02:47:46;;;;;;;13.80;8.15;;;;;;;13.17;61.92;100582.53;4856621;28;97473;-76
2024/02/17 02:50:12;;;;;;;10.30;7.95;;;;;;;13.25;62.20;100580.47;4856242;28;97593;-76
2024/02/17 02:52:38;;;;;;;12.32;7.88;;;;;;;13.33;62.07;100588.94;4859411;28;101325;-76
2024/02/17 02:55:05;;;;;;;10.27;7.93;;;;;;;13.24;62.40;100577.91;4873423;28;97575;-75
2024/02/17 02:57:30;;;;;;;11.48;8.25;;;;;;;13.21;63.17;100591.19;4859172;28;97079;-76
2024/02/17 02:59:57;;;;;;;14.60;8.50;;;;;;;13.29;62.80;100590.00;4859055;28;97486;-77
2024/02/17 03:02:22;;;;;;;12.50;8.15;;;;;;;13.31;63.18;100585.50;4876023;28;97408;-76
2024/02/17 03:04:48;;;;;;;14.65;8.35;;;;;;;13.34;63.53;100601.19;4858137;28;96918;-76
2024/02/17 03:07:14;;;;;;;11.27;8.57;;;;;;;13.22;64.45;100600.81;4860173;28;97186;-76
2024/02/17 03:09:39;;;;;;;12.50;8.40;;;;;;;13.26;64.37;100595.38;4858291;28;100916;-76
2024/02/17 03:12:05;;;;;;;13.73;8.27;;;;;;;13.33;64.20;100604.75;4859230;28;101371;-76
2024/02/17 03:14:30;;;;;;;15.65;9.77;;;;;;;13.29;64.50;100611.09;4842457;28;97252;-76
2024/02/17 03:16:56;;;;;;;12.05;8.30;;;;;;;13.23;65.06;100613.06;4881259;28;97330;-77
2024/02/17 03:19:22;;;;;;;14.57;9.30;;;;;;;13.26;64.83;100613.81;4873618;28;101085;-76
2024/02/17 03:21:47;;;;;;;10.15;8.57;;;;;;;13.18;65.15;100617.66;4893779;28;97510;-75
2024/02/17 03:24:13;;;;;;;12.38;8.68;;;;;;;13.18;65.67;100628.19;4884624;28;96815;-76
2024/02/17 03:26:38;;;;;;;11.82;9.07;;;;;;;13.10;65.70;100632.00;4893574;28;96870;-76
2024/02/17 03:29:04;;;;;;;15.05;9.57;;;;;;;13.05;65.71;100633.97;4882600;28;101632;-76
2024/02/17 03:31:29;;;;;;;14.00;9.43;;;;;;;13.04;66.06;100632.25;4888609;28;97329;-76
2024/02/17 03:33:55;;;;;;;11.45;8.55;;;;;;;12.87;66.96;100637.31;4887498;28;96791;-76
2024/02/17 03:36:20;;;;;;;12.48;9.15;;;;;;;12.74;66.82;100636.06;4870888;28;96856;-76
2024/02/17 03:38:47;;;;;;;16.30;9.27;;;;;;;12.80;66.48;100635.81;4891570;28;97536;-77
2024/02/17 03:41:12;;;;;;;12.65;9.40;;;;;;;12.80;66.81;100644.59;4877108;28;101180;-77
2024/02/17 03:43:38;;;;;;;11.55;9.02;;;;;;;12.85;66.68;100647.91;4880212;28;96848;-77
2024/02/17 03:46:03;;;;;;;12.25;9.70;;;;;;;12.74;67.81;100647.47;4893003;28;97344;-76
2024/02/17 03:48:29;;;;;;;12.65;9.43;;;;;;;12.76;67.02;100652.66;4889914;28;97587;-77
2024/02/17 03:50:55;;;;;;;16.20;10.50;;;;;;;12.74;67.56;100636.06;4887780;28;99349;-75
2024/02/17 03:53:20;;;;;;;13.50;9.77;;;;;;;12.72;67.75;100643.19;4873278;28;96821;-77
2024/02/17 03:55:46;;;;;;;17.98;11.95;;;;;;;12.75;67.46;100657.09;4884769;28;96907;-76
2024/02/17 03:58:11;;;;;;;13.95;10.48;;;;;;;12.76;67.37;100663.22;4885463;28;98604;-78
2024/02/17 04:00:37;;;;;;;14.88;10.30;;;;;;;12.67;68.13;100667.03;4883775;28;97856;-76
2024/02/17 04:03:03;;;;;;;13.05;9.77;;;;;;;12.77;67.91;100667.53;4888102;28;96936;-76
2024/02/17 04:05:28;;;;;;;12.57;10.25;;;;;;;12.80;67.88;100663.03;4868283;28;97214;-76
2024/02/17 04:07:54;;;;;;;17.23;11.82;;;;;;;12.81;68.51;100664.75;4864492;28;97447;-76
2024/02/17 04:10:19;;;;;;;15.38;10.43;;;;;;;12.83;68.17;100665.56;4892262;28;101088;-76
2024/02/17 04:12:45;;;;;;;13.50;10.63;;;;;;;12.87;67.94;100672.41;4890827;28;97328;-76
2024/02/17 04:15:11;;;;;;;16.52;10.85;;;;;;;12.86;67.79;100680.41;4889137;28;96918;-76
2024/02/17 04:17:36;;;;;;;17.00;11.55;;;;;;;12.80;68.72;100688.50;4886938;28;100925;-76
2024/02/17 04:20:06;;;;;;;14.43;10.48;;;;;;;12.86;68.22;100686.53;4872167;28;101518;-76
2024/02/17 04:22:32;;;;;;;15.13;11.10;;;;;;;12.85;67.74;100681.28;4891156;28;96864;-76
2024/02/17 04:24:57;;;;;;;15.60;11.25;;;;;;;12.93;68.69;100686.28;4893571;28;96942;-77
2024/02/17 04:27:23;;;;;;;18.40;11.27;;;;;;;12.94;68.19;100674.81;4874815;28;101768;-76
2024/02/17 04:29:49;;;;;;;14.98;11.00;;;;;;;12.95;68.23;100681.81;4875852;28;101893;-76
2024/02/17 04:32:15;;;;;;;21.92;12.60;;;;;;;12.94;68.44;100682.72;4892339;28;97707;-76
2024/02/17 04:34:41;;;;;;;17.08;11.52;;;;;;;12.97;68.47;100683.47;4857836;28;97242;-76
2024/02/17 04:37:07;;;;;;;23.75;12.35;;;;;;;12.88;68.67;100687.31;4870689;28;101033;-76
2024/02/17 04:39:33;;;;;;;17.70;11.95;;;;;;;12.87;68.93;100695.28;4884680;28;97292;-77
2024/02/17 04:41:58;;;;;;;18.98;11.73;;;;;;;12.88;68.91;100699.63;4888896;28;97322;-76
2024/02/17 04:44:24;;;;;;;14.07;10.77;;;;;;;12.83;69.31;100702.44;4884021;28;97066;-76
2024/02/17 04:46:50;;;;;;;18.30;11.60;;;;;;;12.74;69.90;100699.28;4891851;28;97428;-76
2024/02/17 04:49:15;;;;;;;15.20;11.40;;;;;;;12.79;69.30;100711.34;4873588;28;101204;-75
2024/02/17 04:51:41;;;;;;;15.32;11.75;;;;;;;12.79;69.62;100699.97;4886341;28;97237;-75
2024/02/17 04:54:06;;;;;;;17.25;12.40;;;;;;;12.88;69.06;100697.00;4872166;28;97360;-75
2024/02/17 04:56:32;;;;;;;15.10;11.18;;;;;;;12.95;69.26;100689.72;4886204;28;101546;-77
2024/02/17 04:58:57;;;;;;;17.40;12.00;;;;;;;12.96;68.74;100697.56;4880362;28;100986;-76
2024/02/17 05:01:23;;;;;;;16.73;12.07;;;;;;;12.91;69.51;100697.75;4884257;28;96901;-77
2024/02/17 05:03:50;;;;;;;16.23;11.23;;;;;;;12.93;69.15;100699.47;4886229;28;96861;-75
2024/02/17 05:06:17;;;;;;;14.93;10.77;;;;;;;12.81;69.21;100708.69;4886582;28;97844;-76
2024/02/17 05:08:45;;;;;;;17.63;12.38;;;;;;;12.84;69.21;100711.19;4885108;28;98233;-76
2024/02/17 05:11:15;;;;;;;14.43;11.10;;;;;;;12.77;69.69;100718.47;4887572;28;97035;-76
2024/02/17 05:13:41;;;;;;;23.30;12.40;;;;;;;12.73;70.32;100716.84;4857749;28;97116;-76
2024/02/17 05:16:07;;;;;;;16.92;12.70;;;;;;;12.75;69.61;100709.78;4873811;28;97514;-79
2024/02/17 05:18:33;;;;;;;17.13;11.38;;;;;;;12.73;69.76;100703.69;4877183;28;97320;-77
2024/02/17 05:20:59;;;;;;;15.82;11.00;;;;;;;12.83;69.57;100707.72;4864929;28;96995;-75
2024/02/17 05:23:25;;;;;;;18.48;11.95;;;;;;;12.87;69.20;100703.19;4878379;28;96861;-76
2024/02/17 05:25:51;;;;;;;19.33;12.07;;;;;;;12.79;69.64;100707.88;4867384;28;97463;-76
2024/02/17 05:28:16;;;;;;;19.00;13.00;;;;;;;12.83;69.57;100706.88;4880623;28;97428;-78
2024/02/17 05:30:42;;;;;;;16.92;11.82;;;;;;;12.79;69.27;100694.69;4904370;28;96917;-76
2024/02/17 05:33:08;;;;;;;21.83;12.75;;;;;;;12.81;69.30;100698.16;4882812;28;96919;-77
2024/02/17 05:35:33;;;;;;;16.88;11.82;;;;;;;12.76;69.59;100705.34;4857911;28;101244;-76
2024/02/17 05:37:59;;;;;;;17.65;11.70;;;;;;;12.67;69.81;100707.41;4886758;28;101059;-76
2024/02/17 05:40:24;;;;;;;15.48;11.77;;;;;;;12.71;69.92;100710.78;4886794;28;96908;-76
2024/02/17 05:42:50;;;;;;;16.70;11.77;;;;;;;12.76;69.74;100713.25;4900132;28;96907;-77
2024/02/17 05:45:15;;;;;;;17.67;11.70;;;;;;;12.77;69.56;100714.97;4876389;28;101716;-75
2024/02/17 05:47:41;;;;;;;15.18;11.05;;;;;;;12.76;69.39;100716.75;4892792;28;101890;-75
2024/02/17 05:50:07;;;;;;;17.17;10.93;;;;;;;12.79;69.67;100723.69;4891293;28;96819;-76
2024/02/17 05:52:33;;;;;;;18.42;11.57;;;;;;;12.83;69.34;100730.56;4883665;28;96930;-76
2024/02/17 05:54:58;;;;;;;20.40;12.85;;;;;;;12.83;69.22;100734.06;4898842;28;101371;-76
2024/02/17 05:57:24;;;;;;;22.52;14.00;;;;;;;12.75;69.39;100736.09;4881971;28;97359;-76
2024/02/17 05:59:49;;;;;;;18.17;12.15;;;;;;;12.72;70.17;100738.84;4863864;28;97262;-76
2024/02/17 06:02:16;;;;;;;15.55;12.23;;;;;;;12.68;69.89;100743.38;4878467;28;96965;-76
2024/02/17 06:04:41;;;;;;;15.85;11.65;;;;;;;12.69;69.76;100741.59;4894067;28;97491;-76
2024/02/17 06:07:07;;;;;;;17.15;12.70;;;;;;;12.71;69.65;100746.81;4874144;28;101413;-75
2024/02/17 06:09:32;;;;;;;18.77;13.27;;;;;;;12.73;69.89;100748.47;4893434;28;96863;-76
2024/02/17 06:11:58;;;;;;;17.98;13.75;;;;;;;12.76;69.66;100761.53;4894195;28;97188;-77
2024/02/17 06:14:23;;;;;;;18.38;14.02;;;;;;;12.78;70.00;100767.59;4893903;28;97474;-76
2024/02/17 06:16:50;;;;;;;19.15;13.48;;;;;;;12.77;69.70;100762.38;4861766;28;101144;-75
2024/02/17 06:21:59;;;;;;;22.60;12.63;;;;;;;12.76;70.16;100774.69;4901162;28;96834;-75
2024/02/17 06:24:25;;;;;;;17.75;13.90;;;;;;;12.80;69.98;100778.97;4892108;28;97621;-75
2024/02/17 06:26:51;;;;;;;18.17;12.82;;;;;;;12.79;70.27;100789.53;4887462;28;100850;-75
2024/02/17 06:29:17;;;;;;;16.15;12.23;;;;;;;12.77;70.11;100783.44;4894413;28;96816;-77
2024/02/17 06:31:42;;;;;;;15.98;12.70;;;;;;;12.75;70.87;100793.22;4886068;28;97131;-77
2024/02/17 06:34:08;;;;;;;17.35;12.82;;;;;;;12.72;70.83;100796.81;4897045;28;97460;-75
2024/02/17 06:36:34;;;;;;;20.00;12.95;;;;;;;12.76;70.58;100808.09;4877223;28;99707;-76
2024/02/17 06:38:59;;;;;;;17.55;13.13;;;;;;;12.77;70.76;100799.25;4878661;28;97143;-75
2024/02/17 06:41:25;;;;;;;21.67;13.60;;;;;;;12.80;70.72;100810.56;4893808;28;96816;-75
2024/02/17 06:43:50;;;;;;;17.20;12.82;;;;;;;12.77;70.81;100813.31;4864440;28;101006;-75
2024/02/17 06:46:16;;;;;;;21.00;14.07;;;;;;;12.63;71.54;100818.19;4912779;28;98453;-76
2024/02/17 06:48:42;;;;;;;15.32;11.98;;;;;;;12.62;72.22;100817.34;4876551;28;96904;-75
2024/02/17 06:51:09;;;;;;;16.95;12.63;;;;;;;12.64;71.56;100831.31;4887993;28;96942;-75
2024/02/17 06:53:35;;;;;;;13.45;11.23;;;;;;;12.61;71.62;100825.28;4907296;28;97581;-75
2024/02/17 06:56:00;;;;;;;13.52;11.45;;;;;;;12.57;72.18;100831.59;4895630;28;97287;-75
2024/02/17 06:58:26;;;;;;;18.60;10.98;;;;;;;12.58;72.52;100831.53;4885628;28;97220;-75
2024/02/17 07:00:51;;;;;;;15.20;10.40;;;;;;;12.69;72.72;100833.78;4889115;28;97398;-75
2024/02/17 07:03:17;;;;;;;13.13;9.75;;;;;;;12.73;72.55;100845.06;4877801;28;101280;-76
2024/02/17 07:05:43;;;;;;;15.65;10.25;;;;;;;12.70;72.62;100830.22;4877793;28;101192;-76
2024/02/17 07:08:10;;;;;;;11.02;9.30;;;;;;;12.69;72.72;100847.81;4892190;28;96798;-75
2024/02/17 07:10:36;;;;;;;15.52;9.82;;;;;;;12.79;72.79;100847.50;4858923;28;97888;-75
2024/02/17 07:13:03;;;;;;;14.80;10.07;;;;;;;12.79;72.54;100842.22;4876794;28;97677;-76
2024/02/17 07:15:29;;;;;;;14.45;9.20;;;;;;;12.86;72.34;100865.69;4877573;28;101468;-75
2024/02/17 07:17:55;;;;;;;11.35;9.48;;;;;;;12.73;72.96;100869.63;4892903;28;96885;-75
2024/02/17 07:20:20;;;;;;;13.77;9.68;;;;;;;12.82;72.97;100876.38;4881360;28;96870;-75
2024/02/17 07:22:46;;;;;;;14.05;10.52;;;;;;;12.87;72.63;100863.91;4901677;28;97940;-75
2024/02/17 07:25:12;;;;;;;13.27;10.75;;;;;;;12.90;72.54;100875.19;4893355;28;97880;-75
2024/02/17 07:27:39;;;;;;;12.10;9.32;;;;;;;12.87;73.37;100866.53;4871951;28;96802;-75
2024/02/17 07:30:05;;;;;;;11.68;8.93;;;;;;;12.92;72.89;100872.50;4873001;28;96810;-75
2024/02/17 07:32:31;;;;;;;8.90;7.50;;;;;;;12.86;73.35;100875.38;4882305;28;97541;-74
2024/02/17 07:34:56;;;;;;;10.85;6.80;;;;;;;12.87;73.10;100884.97;4880410;28;100137;-75
2024/02/17 07:37:22;;;;;;;9.25;6.72;;;;;;;12.87;72.95;100888.47;4882997;28;96879;-75
2024/02/17 07:39:47;;;;;;;7.28;6.15;;;;;;;12.87;73.22;100892.88;4894387;28;96991;-75
2024/02/17 07:42:13;;;;;;;6.55;5.20;;;;;;;12.88;73.46;100897.22;4893952;28;97591;-77
2024/02/17 07:44:42;;;;;;;7.63;4.47;;;;;;;12.93;73.02;100902.34;4883919;28;97505;-76
2024/02/17 07:47:07;;;;;;;6.78;4.60;;;;;;;12.93;73.18;100897.09;4895023;28;96717;-75
2024/02/17 07:49:33;;;;;;;6.47;4.57;;;;;;;13.00;72.91;100898.56;4896794;28;97590;-75
2024/02/17 07:51:59;;;;;;;4.93;3.65;;;;;;;12.96;73.21;100904.88;4878473;28;101575;-75
2024/02/17 07:54:24;;;;;;;5.22;3.53;;;;;;;12.97;73.46;100907.44;4889684;28;97402;-75
2024/02/17 07:56:50;;;;;;;5.00;3.30;;;;;;;13.01;72.85;100906.44;4893555;28;96862;-76
2024/02/17 07:59:16;;;;;;;5.18;3.40;;;;;;;13.01;73.62;100908.22;4906768;28;96870;-76
2024/02/17 08:01:42;;;;;;;5.63;4.45;;;;;;;13.03;73.31;100916.91;4878496;28;98074;-76
2024/02/17 08:04:07;;;;;;;7.80;6.28;;;;;;;12.94;73.94;100907.56;4872140;28;97392;-76
2024/02/17 08:06:33;;;;;;;9.93;6.88;;;;;;;12.89;74.05;100918.28;4883530;28;96987;-76
2024/02/17 08:08:58;;;;;;;12.50;7.60;;;;;;;12.91;73.92;100924.34;4862395;28;97084;-77
2024/02/17 08:11:24;;;;;;;11.32;8.05;;;;;;;12.96;74.27;100920.69;4878038;28;97497;-77
2024/02/17 08:13:49;;;;;;;9.15;7.97;;;;;;;12.98;73.95;100932.06;4876913;28;97447;-76
2024/02/17 08:16:15;;;;;;;11.68;8.30;;;;;;;13.00;74.54;100931.09;4875563;28;96857;-76
2024/02/17 08:18:44;;;;;;;14.18;11.45;;;;;;;12.99;74.35;100937.25;4899321;28;96763;-76
2024/02/17 08:21:10;;;;;;;13.93;10.25;;;;;;;12.99;74.41;100928.50;4874412;28;100994;-76
2024/02/17 08:23:36;;;;;;;10.65;8.20;;;;;;;13.03;74.46;100938.88;4876205;28;101183;-78
2024/02/17 08:26:01;;;;;;;13.15;8.52;;;;;;;13.14;74.22;100949.03;4861182;28;97361;-77
2024/02/17 08:28:27;;;;;;;10.43;8.43;;;;;;;13.12;74.22;100940.34;4883655;28;98274;-76
2024/02/17 08:30:53;;;;;;;13.02;8.95;;;;;;;13.19;74.26;100946.25;4878889;28;97430;-76
2024/02/17 08:33:19;;;;;;;11.18;8.90;;;;;;;13.24;74.07;100954.88;4878016;28;97422;-77
2024/02/17 08:35:45;;;;;;;11.07;9.07;;;;;;;13.23;74.68;100956.63;4885471;28;97935;-76
2024/02/17 08:38:13;;;;;;;14.10;9.02;;;;;;;13.31;74.25;100962.53;4871970;28;97515;-77
2024/02/17 08:40:39;;;;;;;9.02;8.13;;;;;;;13.38;73.97;100959.66;4879772;28;97605;-77
2024/02/17 08:43:05;;;;;;;15.82;8.98;;;;;;;13.35;73.64;100971.19;4892297;28;97440;-76
2024/02/17 08:45:31;;;;;;;11.15;8.88;;;;;;;13.39;74.04;100969.31;4879866;28;96858;-76
2024/02/17 08:47:57;;;;;;;11.27;8.95;;;;;;;13.46;73.70;100970.81;4876780;28;96818;-76
2024/02/17 08:50:22;;;;;;;11.13;9.13;;;;;;;13.46;74.05;100976.94;4865328;28;99046;-76
2024/02/17 08:52:48;;;;;;;11.05;8.93;;;;;;;13.48;73.80;100977.75;4892920;28;100191;-78
2024/02/17 08:55:14;;;;;;;12.98;8.75;;;;;;;13.49;73.65;100984.75;4883715;28;97555;-76
2024/02/17 08:57:39;;;;;;;10.70;8.63;;;;;;;13.54;73.26;100984.59;4889925;28;98110;-76
2024/02/17 09:00:05;;;;;;;10.05;8.05;;;;;;;13.59;73.81;100993.22;4882415;28;98041;-77
2024/02/17 09:02:32;;;;;;;8.98;7.72;;;;;;;13.53;73.63;100986.38;4878199;28;98113;-77
2024/02/17 09:04:58;;;;;;;10.65;8.07;;;;;;;13.76;73.39;100996.09;4883024;28;96857;-76
2024/02/17 09:07:23;;;;;;;10.55;7.10;;;;;;;13.75;73.29;100999.63;4890187;28;97532;-75
2024/02/17 09:09:52;;;;;;;9.85;7.40;;;;;;;13.66;73.26;100999.97;4858493;28;101283;-77
2024/02/17 09:12:19;;;;;;;10.93;8.48;;;;;;;13.71;73.36;101005.09;4892695;28;97357;-76
2024/02/17 09:14:44;;;;;;;8.27;7.18;;;;;;;13.63;73.71;101001.88;4885085;28;97454;-76
2024/02/17 09:17:10;;;;;;;9.25;8.18;;;;;;;13.54;73.22;101000.41;4890530;28;97023;-77
2024/02/17 09:19:36;;;;;;;11.65;8.35;;;;;;;13.59;73.45;101011.66;4886516;28;97745;-78
2024/02/17 09:22:04;;;;;;;10.85;7.95;;;;;;;13.58;73.18;101005.53;4855292;28;97606;-76
2024/02/17 09:24:31;;;;;;;12.18;8.88;;;;;;;13.59;73.45;101003.75;4856909;28;97617;-77
2024/02/17 09:27:00;;;;;;;9.43;8.00;;;;;;;13.66;73.02;101013.16;4871339;28;98286;-76
2024/02/17 09:29:29;;;;;;;12.65;8.48;;;;;;;13.79;72.22;101009.19;4873327;28;100164;-76
2024/02/17 09:31:55;;;;;;;13.15;8.75;;;;;;;13.81;72.61;101009.97;4887313;28;101082;-76
2024/02/17 09:34:21;;;;;;;10.13;8.43;;;;;;;14.09;71.73;101018.66;4889517;28;96985;-77
2024/02/17 09:36:47;;;;;;;9.80;7.93;;;;;;;14.57;70.87;101015.06;4872887;28;98409;-78
2024/02/17 09:39:15;;;;;;;10.60;8.07;;;;;;;14.76;70.00;101021.34;4891571;28;97916;-79
2024/02/17 09:41:41;;;;;;;9.13;7.47;;;;;;;14.90;68.58;101019.00;4875732;28;97485;-76
2024/02/17 09:44:09;;;;;;;11.05;8.40;;;;;;;15.29;67.20;101020.91;4882206;28;96874;-77
2024/02/17 09:46:35;;;;;;;8.57;7.47;;;;;;;15.33;67.28;101025.16;4893669;28;96907;-76
2024/02/17 09:49:02;;;;;;;8.40;7.25;;;;;;;15.21;67.35;101024.78;4889060;28;101104;-76
2024/02/17 09:51:29;;;;;;;8.52;7.57;;;;;;;15.14;67.92;101038.28;4870338;28;101337;-75
2024/02/17 09:53:56;;;;;;;10.35;7.00;;;;;;;15.28;66.98;101036.84;4875553;28;96892;-76
2024/02/17 09:56:21;;;;;;;8.65;7.03;;;;;;;15.06;67.47;101035.09;4846510;28;98295;-83
2024/02/17 09:58:47;;;;;;;8.15;6.90;;;;;;;15.13;67.22;101028.63;4868457;28;98202;-83
2024/02/17 10:01:13;;;;;;;9.40;7.15;;;;;;;15.39;66.26;101034.59;4876411;28;101290;-83
2024/02/17 10:03:39;;;;;;;14.75;9.40;;;;;;;15.05;65.88;101053.66;4875720;28;97119;-85
2024/02/17 10:06:11;;;;;;;15.00;8.50;;;;;;;14.92;65.57;101054.16;4873918;28;97696;-85
2024/02/17 10:08:41;;;;;;;13.88;8.52;;;;;;;15.13;65.09;101049.78;4876172;28;97770;-83
2024/02/17 10:11:10;;;;;;;10.65;6.70;;;;;;;15.11;63.78;101046.34;4876737;28;98010;-85
2024/02/17 10:13:37;;;;;;;7.90;5.95;;;;;;;15.20;63.84;101052.16;4875537;28;97392;-83
2024/02/17 10:16:15;;;;;;;7.10;5.82;;;;;;;15.16;64.39;101056.72;4882465;28;96989;-82
2024/02/17 10:18:45;;;;;;;10.77;6.43;;;;;;;15.21;64.25;101051.22;4870418;28;101574;-84
2024/02/17 10:21:11;;;;;;;7.90;5.85;;;;;;;15.44;63.54;101050.25;4871176;28;101601;-84
2024/02/17 10:23:37;;;;;;;11.75;6.47;;;;;;;15.27;63.13;101054.50;4884566;28;97682;-84
2024/02/17 10:26:03;;;;;;;7.25;4.93;;;;;;;15.18;62.88;101057.50;4857949;28;97973;-83
2024/02/17 10:28:29;;;;;;;9.55;6.25;;;;;;;14.88;63.76;101065.78;4869004;28;101165;-84
2024/02/17 10:30:56;;;;;;;12.55;8.00;;;;;;;15.04;63.35;101063.38;4860680;28;102143;-87
2024/02/17 10:33:24;;;;;;;16.65;6.40;;;;;;;14.90;64.16;101063.09;4886069;28;97387;-84
2024/02/17 10:35:50;;;;;;;6.53;5.68;;;;;;;14.85;63.92;101060.63;4861723;28;97524;-85
2024/02/17 10:38:16;;;;;;;7.15;4.82;;;;;;;14.78;63.25;101071.50;4860207;28;100346;-87
2024/02/17 10:40:42;;;;;;;5.63;4.22;;;;;;;14.59;63.07;101066.94;4873666;28;100603;-85
2024/02/17 10:43:08;;;;;;;6.57;4.72;;;;;;;14.52;63.33;101073.38;4863693;28;97948;-85
2024/02/17 10:45:33;;;;;;;7.00;4.75;;;;;;;14.40;63.56;101077.31;4860947;28;96820;-85
2024/02/17 10:48:04;;;;;;;43.80;24.33;;;;;;;14.34;62.98;101082.84;4857408;28;102054;-87
2024/02/17 10:50:32;;;;;;;12.37;8.30;;;;;;;14.29;63.36;101084.78;4869761;28;100986;-84
2024/02/17 10:53:06;;;;;;;7.47;5.32;;;;;;;14.34;63.73;101093.41;4880152;28;96910;-84
2024/02/17 10:55:36;;;;;;;4.90;3.90;;;;;;;14.35;63.50;101092.47;4876638;28;97056;-85
2024/02/17 10:58:10;;;;;;;6.15;4.50;;;;;;;14.47;62.73;101084.06;4881818;28;101417;-84
2024/02/17 11:00:42;;;;;;;7.43;4.90;;;;;;;14.38;62.73;101092.34;4886625;28;101546;-84
2024/02/17 11:03:08;;;;;;;6.18;3.38;;;;;;;14.44;62.18;101101.84;4872613;28;97723;-85
2024/02/17 11:05:38;;;;;;;5.55;3.65;;;;;;;14.44;61.96;101101.84;4859239;28;97152;-84
2024/02/17 11:08:04;;;;;;;4.18;3.35;;;;;;;14.39;61.89;101094.06;4857161;28;101803;-83
2024/02/17 11:10:30;;;;;;;6.45;3.35;;;;;;;14.43;61.61;101089.56;4886216;28;101549;-84
2024/02/17 11:12:56;;;;;;;10.57;3.28;;;;;;;14.46;61.36;101092.94;4878637;28;97319;-85